sensor_id;sensor_type;location;lat;lon;timestamp;pressure;altitude;pressure_sealevel;temperature;humidity
68476;BME280;55464;48.266;14.188;2023-11-21T00:00:51;97256.03;;;12.28;51.25
68476;BME280;55464;48.266;14.188;2023-11-21T00:03:21;97241.38;;;12.24;51.22
68476;BME280;55464;48.266;14.188;2023-11-21T00:05:48;97251.88;;;12.38;51.14
68476;BME280;55464;48.266;14.188;2023-11-21T00:08:14;97253.09;;;12.41;50.85
68476;BME280;55464;48.266;14.188;2023-11-21T00:10:39;97257.03;;;12.40;50.94
68476;BME280;55464;48.266;14.188;2023-11-21T00:13:04;97256.09;;;12.32;51.00
68476;BME280;55464;48.266;14.188;2023-11-21T00:15:30;97259.88;;;12.20;51.32
68476;BME280;55464;48.266;14.188;2023-11-21T00:17:55;97253.88;;;12.18;51.58
68476;BME280;55464;48.266;14.188;2023-11-21T00:20:21;97246.84;;;12.21;51.60
68476;BME280;55464;48.266;14.188;2023-11-21T00:22:47;97253.16;;;12.21;51.74
68476;BME280;55464;48.266;14.188;2023-11-21T00:25:13;97234.38;;;12.07;51.48
68476;BME280;55464;48.266;14.188;2023-11-21T00:27:41;97251.00;;;12.11;51.57
68476;BME280;55464;48.266;14.188;2023-11-21T00:30:07;97258.44;;;12.07;51.87
68476;BME280;55464;48.266;14.188;2023-11-21T00:32:35;97253.22;;;12.02;51.82
68476;BME280;55464;48.266;14.188;2023-11-21T00:35:00;97255.41;;;11.93;51.69
68476;BME280;55464;48.266;14.188;2023-11-21T00:37:26;97245.66;;;11.79;51.98
68476;BME280;55464;48.266;14.188;2023-11-21T00:39:51;97246.31;;;11.72;52.36
68476;BME280;55464;48.266;14.188;2023-11-21T00:42:17;97246.25;;;11.69;52.31
68476;BME280;55464;48.266;14.188;2023-11-21T00:44:42;97254.03;;;11.63;52.22
68476;BME280;55464;48.266;14.188;2023-11-21T00:47:07;97257.88;;;11.59;52.56
68476;BME280;55464;48.266;14.188;2023-11-21T00:49:33;97243.44;;;11.46;52.53
68476;BME280;55464;48.266;14.188;2023-11-21T00:51:58;97263.19;;;11.48;52.89
68476;BME280;55464;48.266;14.188;2023-11-21T00:54:24;97256.38;;;11.42;52.92
68476;BME280;55464;48.266;14.188;2023-11-21T00:56:50;97264.94;;;11.37;52.92
68476;BME280;55464;48.266;14.188;2023-11-21T00:59:15;97259.00;;;11.34;53.06
68476;BME280;55464;48.266;14.188;2023-11-21T01:01:41;97269.56;;;11.32;52.64
68476;BME280;55464;48.266;14.188;2023-11-21T01:04:06;97267.41;;;11.22;52.59
68476;BME280;55464;48.266;14.188;2023-11-21T01:06:34;97257.81;;;11.16;52.63
68476;BME280;55464;48.266;14.188;2023-11-21T01:09:00;97264.50;;;11.15;52.81
68476;BME280;55464;48.266;14.188;2023-11-21T01:11:26;97274.00;;;11.18;53.26
68476;BME280;55464;48.266;14.188;2023-11-21T01:13:51;97265.22;;;11.12;53.38
68476;BME280;55464;48.266;14.188;2023-11-21T01:16:17;97256.44;;;11.06;53.73
68476;BME280;55464;48.266;14.188;2023-11-21T01:18:43;97260.47;;;11.12;53.72
68476;BME280;55464;48.266;14.188;2023-11-21T01:21:08;97263.41;;;11.20;53.71
68476;BME280;55464;48.266;14.188;2023-11-21T01:23:34;97261.06;;;11.22;53.62
68476;BME280;55464;48.266;14.188;2023-11-21T01:26:00;97258.31;;;11.22;53.88
68476;BME280;55464;48.266;14.188;2023-11-21T01:28:25;97255.56;;;11.22;53.82
68476;BME280;55464;48.266;14.188;2023-11-21T01:30:52;97244.00;;;11.16;54.13
68476;BME280;55464;48.266;14.188;2023-11-21T01:33:18;97251.06;;;11.13;53.88
68476;BME280;55464;48.266;14.188;2023-11-21T01:35:43;97222.22;;;11.11;54.20
68476;BME280;55464;48.266;14.188;2023-11-21T01:38:11;97240.25;;;11.24;54.07
68476;BME280;55464;48.266;14.188;2023-11-21T01:40:36;97223.56;;;11.17;53.79
68476;BME280;55464;48.266;14.188;2023-11-21T01:43:02;97241.41;;;11.23;54.14
68476;BME280;55464;48.266;14.188;2023-11-21T01:45:29;97231.53;;;11.22;53.83
68476;BME280;55464;48.266;14.188;2023-11-21T01:47:56;97245.84;;;11.28;53.88
68476;BME280;55464;48.266;14.188;2023-11-21T01:50:22;97221.22;;;11.19;53.81
68476;BME280;55464;48.266;14.188;2023-11-21T01:52:48;97228.94;;;11.29;53.71
68476;BME280;55464;48.266;14.188;2023-11-21T01:55:15;97232.47;;;11.30;53.54
68476;BME280;55464;48.266;14.188;2023-11-21T01:57:45;97227.97;;;11.22;53.38
68476;BME280;55464;48.266;14.188;2023-11-21T02:00:11;97246.72;;;11.32;53.78
68476;BME280;55464;48.266;14.188;2023-11-21T02:02:47;97238.50;;;11.35;53.70
68476;BME280;55464;48.266;14.188;2023-11-21T02:05:14;97242.88;;;11.37;53.77
68476;BME280;55464;48.266;14.188;2023-11-21T02:07:41;97248.31;;;11.33;53.55
68476;BME280;55464;48.266;14.188;2023-11-21T02:10:07;97239.59;;;11.31;53.50
68476;BME280;55464;48.266;14.188;2023-11-21T02:12:33;97233.47;;;11.22;53.70
68476;BME280;55464;48.266;14.188;2023-11-21T02:15:02;97242.38;;;11.31;53.54
68476;BME280;55464;48.266;14.188;2023-11-21T02:17:30;97245.91;;;11.31;53.32
68476;BME280;55464;48.266;14.188;2023-11-21T02:19:57;97256.88;;;11.28;53.40
68476;BME280;55464;48.266;14.188;2023-11-21T02:22:22;97252.78;;;11.22;53.72
68476;BME280;55464;48.266;14.188;2023-11-21T02:24:51;97251.56;;;11.19;53.71
68476;BME280;55464;48.266;14.188;2023-11-21T02:27:17;97254.19;;;11.12;54.04
68476;BME280;55464;48.266;14.188;2023-11-21T02:29:47;97242.09;;;11.01;54.13
68476;BME280;55464;48.266;14.188;2023-11-21T02:32:12;97257.56;;;11.05;54.39
68476;BME280;55464;48.266;14.188;2023-11-21T02:34:38;97244.63;;;10.90;54.56
68476;BME280;55464;48.266;14.188;2023-11-21T02:37:04;97262.44;;;10.92;54.73
68476;BME280;55464;48.266;14.188;2023-11-21T02:39:31;97229.56;;;10.68;55.15
68476;BME280;55464;48.266;14.188;2023-11-21T02:41:57;97260.22;;;10.82;55.60
68476;BME280;55464;48.266;14.188;2023-11-21T02:44:22;97256.75;;;10.85;55.39
68476;BME280;55464;48.266;14.188;2023-11-21T02:46:47;97238.97;;;10.83;55.35
68476;BME280;55464;48.266;14.188;2023-11-21T02:49:13;97231.19;;;10.88;55.29
68476;BME280;55464;48.266;14.188;2023-11-21T02:51:38;97239.41;;;11.04;55.01
68476;BME280;55464;48.266;14.188;2023-11-21T02:54:05;97239.06;;;11.06;55.22
68476;BME280;55464;48.266;14.188;2023-11-21T02:56:32;97240.31;;;11.08;55.45
68476;BME280;55464;48.266;14.188;2023-11-21T02:58:59;97236.38;;;11.09;55.52
68476;BME280;55464;48.266;14.188;2023-11-21T03:01:26;97241.25;;;11.16;55.15
68476;BME280;55464;48.266;14.188;2023-11-21T03:03:52;97239.28;;;11.16;55.58
68476;BME280;55464;48.266;14.188;2023-11-21T03:06:19;97238.50;;;11.16;55.71
68476;BME280;55464;48.266;14.188;2023-11-21T03:08:44;97237.00;;;11.19;55.71
68476;BME280;55464;48.266;14.188;2023-11-21T03:11:10;97234.31;;;11.22;55.54
68476;BME280;55464;48.266;14.188;2023-11-21T03:13:39;97229.94;;;11.21;55.40
68476;BME280;55464;48.266;14.188;2023-11-21T03:16:09;97226.81;;;11.23;55.53
68476;BME280;55464;48.266;14.188;2023-11-21T03:18:39;97233.81;;;11.36;55.21
68476;BME280;55464;48.266;14.188;2023-11-21T03:21:05;97217.06;;;11.29;55.15
68476;BME280;55464;48.266;14.188;2023-11-21T03:23:31;97227.53;;;11.39;55.11
68476;BME280;55464;48.266;14.188;2023-11-21T03:25:57;97218.91;;;11.41;55.20
68476;BME280;55464;48.266;14.188;2023-11-21T03:28:23;97212.88;;;11.35;55.15
68476;BME280;55464;48.266;14.188;2023-11-21T03:30:49;97228.44;;;11.43;55.25
68476;BME280;55464;48.266;14.188;2023-11-21T03:33:14;97206.13;;;11.32;55.07
68476;BME280;55464;48.266;14.188;2023-11-21T03:35:40;97224.50;;;11.44;54.84
68476;BME280;55464;48.266;14.188;2023-11-21T03:38:07;97221.72;;;11.44;54.75
68476;BME280;55464;48.266;14.188;2023-11-21T03:40:32;97204.59;;;11.35;54.56
68476;BME280;55464;48.266;14.188;2023-11-21T03:42:58;97220.88;;;11.40;54.68
68476;BME280;55464;48.266;14.188;2023-11-21T03:45:24;97220.00;;;11.36;54.67
68476;BME280;55464;48.266;14.188;2023-11-21T03:47:49;97218.97;;;11.25;54.73
68476;BME280;55464;48.266;14.188;2023-11-21T03:50:15;97226.69;;;11.35;54.84
68476;BME280;55464;48.266;14.188;2023-11-21T03:52:40;97223.91;;;11.35;54.73
68476;BME280;55464;48.266;14.188;2023-11-21T03:55:06;97233.81;;;11.36;54.82
68476;BME280;55464;48.266;14.188;2023-11-21T03:57:31;97217.25;;;11.36;54.90
68476;BME280;55464;48.266;14.188;2023-11-21T03:59:57;97222.09;;;11.43;54.54
68476;BME280;55464;48.266;14.188;2023-11-21T04:02:22;97230.44;;;11.46;54.60
68476;BME280;55464;48.266;14.188;2023-11-21T04:04:50;97215.00;;;11.42;54.50
68476;BME280;55464;48.266;14.188;2023-11-21T04:07:15;97225.38;;;11.48;54.41
68476;BME280;55464;48.266;14.188;2023-11-21T04:09:41;97222.31;;;11.53;54.34
68476;BME280;55464;48.266;14.188;2023-11-21T04:12:07;97232.91;;;11.51;53.93
68476;BME280;55464;48.266;14.188;2023-11-21T04:14:35;97228.13;;;11.48;54.11
68476;BME280;55464;48.266;14.188;2023-11-21T04:17:00;97217.53;;;11.50;54.21
68476;BME280;55464;48.266;14.188;2023-11-21T04:19:26;97226.94;;;11.49;54.02
68476;BME280;55464;48.266;14.188;2023-11-21T04:21:51;97224.63;;;11.51;54.25
68476;BME280;55464;48.266;14.188;2023-11-21T04:24:17;97214.41;;;11.52;54.19
68476;BME280;55464;48.266;14.188;2023-11-21T04:26:45;97201.47;;;11.37;54.29
68476;BME280;55464;48.266;14.188;2023-11-21T04:29:10;97209.03;;;11.40;54.20
68476;BME280;55464;48.266;14.188;2023-11-21T04:31:35;97211.88;;;11.43;54.49
68476;BME280;55464;48.266;14.188;2023-11-21T04:34:01;97209.25;;;11.31;54.50
68476;BME280;55464;48.266;14.188;2023-11-21T04:36:27;97212.59;;;11.40;54.41
68476;BME280;55464;48.266;14.188;2023-11-21T04:38:53;97193.84;;;11.30;54.67
68476;BME280;55464;48.266;14.188;2023-11-21T04:41:18;97201.84;;;11.35;54.71
68476;BME280;55464;48.266;14.188;2023-11-21T04:43:43;97207.00;;;11.37;54.72
68476;BME280;55464;48.266;14.188;2023-11-21T04:46:09;97214.84;;;11.34;54.68
68476;BME280;55464;48.266;14.188;2023-11-21T04:48:34;97210.13;;;11.35;54.31
68476;BME280;55464;48.266;14.188;2023-11-21T04:51:00;97224.78;;;11.39;54.22
68476;BME280;55464;48.266;14.188;2023-11-21T04:53:25;97216.00;;;11.33;54.32
68476;BME280;55464;48.266;14.188;2023-11-21T04:55:51;97220.28;;;11.31;53.90
68476;BME280;55464;48.266;14.188;2023-11-21T04:58:16;97208.72;;;11.25;54.15
68476;BME280;55464;48.266;14.188;2023-11-21T05:00:41;97225.34;;;11.29;54.08
68476;BME280;55464;48.266;14.188;2023-11-21T05:03:07;97229.56;;;11.23;54.08
68476;BME280;55464;48.266;14.188;2023-11-21T05:05:33;97228.53;;;11.11;54.28
68476;BME280;55464;48.266;14.188;2023-11-21T05:07:59;97223.25;;;11.03;54.65
68476;BME280;55464;48.266;14.188;2023-11-21T05:10:25;97236.81;;;11.11;54.47
68476;BME280;55464;48.266;14.188;2023-11-21T05:12:50;97220.13;;;11.04;54.46
68476;BME280;55464;48.266;14.188;2023-11-21T05:15:16;97232.47;;;11.10;54.51
68476;BME280;55464;48.266;14.188;2023-11-21T05:17:44;97233.47;;;11.02;54.24
68476;BME280;55464;48.266;14.188;2023-11-21T05:20:11;97213.22;;;10.94;54.44
68476;BME280;55464;48.266;14.188;2023-11-21T05:22:38;97231.16;;;11.04;54.69
68476;BME280;55464;48.266;14.188;2023-11-21T05:25:05;97224.75;;;11.00;54.68
68476;BME280;55464;48.266;14.188;2023-11-21T05:27:30;97213.88;;;10.88;55.20
68476;BME280;55464;48.266;14.188;2023-11-21T05:29:56;97214.66;;;10.88;55.18
68476;BME280;55464;48.266;14.188;2023-11-21T05:32:23;97199.13;;;10.80;55.14
68476;BME280;55464;48.266;14.188;2023-11-21T05:34:49;97217.41;;;10.88;55.07
68476;BME280;55464;48.266;14.188;2023-11-21T05:37:14;97216.97;;;10.86;55.57
68476;BME280;55464;48.266;14.188;2023-11-21T05:39:40;97191.72;;;10.65;55.52
68476;BME280;55464;48.266;14.188;2023-11-21T05:42:05;97234.03;;;10.92;55.44
68476;BME280;55464;48.266;14.188;2023-11-21T05:44:31;97236.78;;;10.92;55.33
68476;BME280;55464;48.266;14.188;2023-11-21T05:46:57;97225.25;;;10.86;55.09
68476;BME280;55464;48.266;14.188;2023-11-21T05:49:24;97236.28;;;10.86;55.44
68476;BME280;55464;48.266;14.188;2023-11-21T05:51:52;97246.94;;;10.88;55.11
68476;BME280;55464;48.266;14.188;2023-11-21T05:54:19;97250.50;;;10.88;55.49
68476;BME280;55464;48.266;14.188;2023-11-21T05:56:45;97251.81;;;10.94;55.34
68476;BME280;55464;48.266;14.188;2023-11-21T05:59:10;97246.75;;;10.96;55.16
68476;BME280;55464;48.266;14.188;2023-11-21T06:01:35;97240.81;;;10.94;55.26
68476;BME280;55464;48.266;14.188;2023-11-21T06:04:03;97231.47;;;10.83;55.66
68476;BME280;55464;48.266;14.188;2023-11-21T06:06:29;97244.28;;;10.91;55.21
68476;BME280;55464;48.266;14.188;2023-11-21T06:08:54;97244.53;;;10.86;55.61
68476;BME280;55464;48.266;14.188;2023-11-21T06:11:20;97241.00;;;10.86;55.43
68476;BME280;55464;48.266;14.188;2023-11-21T06:13:46;97260.63;;;11.00;55.52
68476;BME280;55464;48.266;14.188;2023-11-21T06:16:11;97255.81;;;10.97;55.55
68476;BME280;55464;48.266;14.188;2023-11-21T06:18:39;97239.47;;;10.88;55.81
68476;BME280;55464;48.266;14.188;2023-11-21T06:21:05;97264.44;;;10.95;56.10
68476;BME280;55464;48.266;14.188;2023-11-21T06:23:31;97245.72;;;10.85;55.86
68476;BME280;55464;48.266;14.188;2023-11-21T06:25:56;97269.69;;;11.01;56.12
68476;BME280;55464;48.266;14.188;2023-11-21T06:28:22;97274.03;;;11.02;56.14
68476;BME280;55464;48.266;14.188;2023-11-21T06:30:47;97276.38;;;11.00;56.03
68476;BME280;55464;48.266;14.188;2023-11-21T06:33:14;97268.53;;;11.02;56.27
68476;BME280;55464;48.266;14.188;2023-11-21T06:35:39;97277.25;;;11.04;55.96
68476;BME280;55464;48.266;14.188;2023-11-21T06:38:05;97275.28;;;11.04;56.15
68476;BME280;55464;48.266;14.188;2023-11-21T06:40:30;97272.97;;;11.06;56.32
68476;BME280;55464;48.266;14.188;2023-11-21T06:42:56;97257.41;;;10.98;56.36
68476;BME280;55464;48.266;14.188;2023-11-21T06:45:23;97278.72;;;11.17;56.27
68476;BME280;55464;48.266;14.188;2023-11-21T06:47:49;97280.72;;;11.20;55.73
68476;BME280;55464;48.266;14.188;2023-11-21T06:50:14;97279.50;;;11.18;56.08
68476;BME280;55464;48.266;14.188;2023-11-21T06:52:40;97271.16;;;11.14;56.18
68476;BME280;55464;48.266;14.188;2023-11-21T06:55:06;97285.81;;;11.18;56.64
68476;BME280;55464;48.266;14.188;2023-11-21T06:57:33;97288.94;;;11.16;56.81
68476;BME280;55464;48.266;14.188;2023-11-21T06:59:59;97292.16;;;11.19;56.79
68476;BME280;55464;48.266;14.188;2023-11-21T07:02:24;97288.28;;;11.23;56.96
68476;BME280;55464;48.266;14.188;2023-11-21T07:04:50;97291.94;;;11.27;56.54
68476;BME280;55464;48.266;14.188;2023-11-21T07:07:15;97288.44;;;11.30;57.00
68476;BME280;55464;48.266;14.188;2023-11-21T07:09:41;97300.75;;;11.33;57.26
68476;BME280;55464;48.266;14.188;2023-11-21T07:12:06;97293.69;;;11.35;57.33
68476;BME280;55464;48.266;14.188;2023-11-21T07:14:35;97292.97;;;11.39;57.12
68476;BME280;55464;48.266;14.188;2023-11-21T07:17:01;97299.63;;;11.38;56.88
68476;BME280;55464;48.266;14.188;2023-11-21T07:19:26;97298.13;;;11.40;57.12
68476;BME280;55464;48.266;14.188;2023-11-21T07:21:51;97308.94;;;11.49;57.04
68476;BME280;55464;48.266;14.188;2023-11-21T07:24:17;97302.19;;;11.46;57.34
68476;BME280;55464;48.266;14.188;2023-11-21T07:26:43;97308.59;;;11.50;57.38
68476;BME280;55464;48.266;14.188;2023-11-21T07:29:08;97296.66;;;11.46;57.22
68476;BME280;55464;48.266;14.188;2023-11-21T07:31:34;97313.41;;;11.53;57.14
68476;BME280;55464;48.266;14.188;2023-11-21T07:34:03;97296.72;;;11.50;57.10
68476;BME280;55464;48.266;14.188;2023-11-21T07:36:28;97320.50;;;11.54;57.23
68476;BME280;55464;48.266;14.188;2023-11-21T07:38:54;97313.81;;;11.56;57.70
68476;BME280;55464;48.266;14.188;2023-11-21T07:41:19;97303.44;;;11.49;57.71
68476;BME280;55464;48.266;14.188;2023-11-21T07:43:46;97300.75;;;11.52;57.63
68476;BME280;55464;48.266;14.188;2023-11-21T07:46:12;97308.66;;;11.54;57.72
68476;BME280;55464;48.266;14.188;2023-11-21T07:48:38;97321.59;;;11.69;57.38
68476;BME280;55464;48.266;14.188;2023-11-21T07:51:04;97313.25;;;11.66;57.26
68476;BME280;55464;48.266;14.188;2023-11-21T07:53:29;97312.50;;;11.69;57.10
68476;BME280;55464;48.266;14.188;2023-11-21T07:56:00;97325.22;;;11.73;57.00
68476;BME280;55464;48.266;14.188;2023-11-21T07:58:27;97332.03;;;11.80;57.23
68476;BME280;55464;48.266;14.188;2023-11-21T08:00:53;97328.56;;;11.83;56.76
68476;BME280;55464;48.266;14.188;2023-11-21T08:03:19;97311.94;;;11.79;57.10
68476;BME280;55464;48.266;14.188;2023-11-21T08:05:44;97322.75;;;11.88;56.94
68476;BME280;55464;48.266;14.188;2023-11-21T08:08:10;97320.09;;;11.91;57.11
68476;BME280;55464;48.266;14.188;2023-11-21T08:10:35;97318.75;;;11.85;57.07
68476;BME280;55464;48.266;14.188;2023-11-21T08:13:01;97331.13;;;11.91;57.29
68476;BME280;55464;48.266;14.188;2023-11-21T08:15:27;97337.44;;;11.92;57.57
68476;BME280;55464;48.266;14.188;2023-11-21T08:17:52;97309.53;;;11.78;57.47
68476;BME280;55464;48.266;14.188;2023-11-21T08:20:18;97326.94;;;11.98;57.50
68476;BME280;55464;48.266;14.188;2023-11-21T08:22:46;97323.72;;;11.96;57.65
68476;BME280;55464;48.266;14.188;2023-11-21T08:25:12;97329.81;;;12.05;57.84
68476;BME280;55464;48.266;14.188;2023-11-21T08:27:38;97331.34;;;12.02;57.62
68476;BME280;55464;48.266;14.188;2023-11-21T08:30:04;97332.22;;;12.06;57.18
68476;BME280;55464;48.266;14.188;2023-11-21T08:32:30;97333.88;;;12.11;57.71
68476;BME280;55464;48.266;14.188;2023-11-21T08:34:59;97336.28;;;12.13;57.37
68476;BME280;55464;48.266;14.188;2023-11-21T08:37:25;97333.22;;;12.18;57.10
68476;BME280;55464;48.266;14.188;2023-11-21T08:39:52;97335.59;;;12.19;57.43
68476;BME280;55464;48.266;14.188;2023-11-21T08:42:18;97316.94;;;12.13;58.07
68476;BME280;55464;48.266;14.188;2023-11-21T08:44:43;97331.81;;;12.27;58.08
68476;BME280;55464;48.266;14.188;2023-11-21T08:47:09;97337.41;;;12.31;57.74
68476;BME280;55464;48.266;14.188;2023-11-21T08:49:34;97326.72;;;12.29;57.63
68476;BME280;55464;48.266;14.188;2023-11-21T08:52:00;97341.03;;;12.35;57.56
68476;BME280;55464;48.266;14.188;2023-11-21T08:54:28;97340.66;;;12.37;57.27
68476;BME280;55464;48.266;14.188;2023-11-21T08:56:54;97340.66;;;12.37;56.96
68476;BME280;55464;48.266;14.188;2023-11-21T08:59:20;97321.91;;;12.26;57.28
68476;BME280;55464;48.266;14.188;2023-11-21T09:01:46;97335.88;;;12.34;57.28
68476;BME280;55464;48.266;14.188;2023-11-21T09:04:12;97340.38;;;12.42;57.29
68476;BME280;55464;48.266;14.188;2023-11-21T09:06:38;97329.63;;;12.37;57.23
68476;BME280;55464;48.266;14.188;2023-11-21T09:09:03;97337.25;;;12.43;57.50
68476;BME280;55464;48.266;14.188;2023-11-21T09:11:31;97338.44;;;12.46;57.54
68476;BME280;55464;48.266;14.188;2023-11-21T09:13:59;97334.16;;;12.48;57.63
68476;BME280;55464;48.266;14.188;2023-11-21T09:16:24;97331.91;;;12.54;57.27
68476;BME280;55464;48.266;14.188;2023-11-21T09:18:50;97334.59;;;12.51;57.10
68476;BME280;55464;48.266;14.188;2023-11-21T09:21:15;97340.91;;;12.51;57.28
68476;BME280;55464;48.266;14.188;2023-11-21T09:23:40;97347.31;;;12.55;56.83
68476;BME280;55464;48.266;14.188;2023-11-21T09:26:06;97350.81;;;12.52;56.81
68476;BME280;55464;48.266;14.188;2023-11-21T09:28:31;97346.00;;;12.49;56.76
68476;BME280;55464;48.266;14.188;2023-11-21T09:30:57;97349.94;;;12.48;57.41
68476;BME280;55464;48.266;14.188;2023-11-21T09:33:22;97356.66;;;12.47;57.16
68476;BME280;55464;48.266;14.188;2023-11-21T09:35:50;97355.34;;;12.41;56.65
68476;BME280;55464;48.266;14.188;2023-11-21T09:38:16;97360.88;;;12.41;57.18
68476;BME280;55464;48.266;14.188;2023-11-21T09:40:42;97347.75;;;12.34;57.03
68476;BME280;55464;48.266;14.188;2023-11-21T09:43:09;97355.34;;;12.41;57.52
68476;BME280;55464;48.266;14.188;2023-11-21T09:45:45;97342.81;;;12.24;57.44
68476;BME280;55464;48.266;14.188;2023-11-21T09:48:11;97353.69;;;12.36;57.89
68476;BME280;55464;48.266;14.188;2023-11-21T09:50:37;97352.88;;;12.36;57.92
68476;BME280;55464;48.266;14.188;2023-11-21T09:53:21;97349.38;;;12.39;58.19
68476;BME280;55464;48.266;14.188;2023-11-21T09:55:51;97343.00;;;12.35;58.34
68476;BME280;55464;48.266;14.188;2023-11-21T09:58:17;97337.53;;;12.38;58.73
68476;BME280;55464;48.266;14.188;2023-11-21T10:00:45;97342.63;;;12.36;58.53
68476;BME280;55464;48.266;14.188;2023-11-21T10:03:11;97338.25;;;12.35;58.84
68476;BME280;55464;48.266;14.188;2023-11-21T10:05:38;97334.72;;;12.35;58.95
68476;BME280;55464;48.266;14.188;2023-11-21T10:08:11;97325.19;;;12.32;59.07
68476;BME280;55464;48.266;14.188;2023-11-21T10:10:38;97339.13;;;12.39;59.11
68476;BME280;55464;48.266;14.188;2023-11-21T10:13:11;97342.75;;;12.43;59.28
68476;BME280;55464;48.266;14.188;2023-11-21T10:15:37;97340.00;;;12.43;59.17
68476;BME280;55464;48.266;14.188;2023-11-21T10:18:03;97338.44;;;12.46;59.10
68476;BME280;55464;48.266;14.188;2023-11-21T10:20:32;97335.31;;;12.47;59.13
68476;BME280;55464;48.266;14.188;2023-11-21T10:22:59;97337.34;;;12.51;59.07
68476;BME280;55464;48.266;14.188;2023-11-21T10:25:26;97336.56;;;12.50;58.74
68476;BME280;55464;48.266;14.188;2023-11-21T10:27:57;97337.34;;;12.51;58.90
68476;BME280;55464;48.266;14.188;2023-11-21T10:30:28;97334.28;;;12.56;58.79
68476;BME280;55464;48.266;14.188;2023-11-21T10:32:59;97325.81;;;12.45;58.53
68476;BME280;55464;48.266;14.188;2023-11-21T10:35:48;97344.47;;;12.52;58.75
68476;BME280;55464;48.266;14.188;2023-11-21T10:38:17;97333.97;;;12.61;58.97
68476;BME280;55464;48.266;14.188;2023-11-21T10:40:44;97327.97;;;12.55;58.59
68476;BME280;55464;48.266;14.188;2023-11-21T10:43:10;97341.84;;;12.59;58.88
68476;BME280;55464;48.266;14.188;2023-11-21T10:45:39;97331.91;;;12.54;58.67
68476;BME280;55464;48.266;14.188;2023-11-21T10:48:07;97337.06;;;12.56;58.70
68476;BME280;55464;48.266;14.188;2023-11-21T10:50:37;97337.06;;;12.56;58.92
68476;BME280;55464;48.266;14.188;2023-11-21T10:53:04;97333.97;;;12.61;58.77
68476;BME280;55464;48.266;14.188;2023-11-21T10:55:30;97333.16;;;12.60;58.93
68476;BME280;55464;48.266;14.188;2023-11-21T10:57:58;97327.56;;;12.57;58.86
68476;BME280;55464;48.266;14.188;2023-11-21T11:00:25;97338.38;;;12.65;58.78
68476;BME280;55464;48.266;14.188;2023-11-21T11:02:53;97340.00;;;12.66;58.87
68476;BME280;55464;48.266;14.188;2023-11-21T11:05:23;97340.06;;;12.70;58.60
68476;BME280;55464;48.266;14.188;2023-11-21T11:08:09;97337.41;;;12.77;59.06
68476;BME280;55464;48.266;14.188;2023-11-21T11:10:37;97330.78;;;12.82;58.98
68476;BME280;55464;48.266;14.188;2023-11-21T11:13:04;97325.94;;;12.75;58.84
68476;BME280;55464;48.266;14.188;2023-11-21T11:15:29;97318.41;;;12.76;58.62
68476;BME280;55464;48.266;14.188;2023-11-21T11:17:55;97333.97;;;12.84;58.87
68476;BME280;55464;48.266;14.188;2023-11-21T11:20:24;97333.66;;;12.89;58.82
68476;BME280;55464;48.266;14.188;2023-11-21T11:22:59;97336.47;;;12.93;58.88
68476;BME280;55464;48.266;14.188;2023-11-21T11:28:14;97330.94;;;12.93;58.50
68476;BME280;55464;48.266;14.188;2023-11-21T11:33:54;97340.97;;;13.01;58.58
68476;BME280;55464;48.266;14.188;2023-11-21T11:36:36;97329.06;;;13.00;58.57
68476;BME280;55464;48.266;14.188;2023-11-21T11:39:02;97314.09;;;13.01;58.58
68476;BME280;55464;48.266;14.188;2023-11-21T11:41:31;97330.84;;;13.12;58.38
68476;BME280;55464;48.266;14.188;2023-11-21T11:44:02;97336.84;;;13.18;58.37
68476;BME280;55464;48.266;14.188;2023-11-21T11:46:46;97328.81;;;13.09;58.20
68476;BME280;55464;48.266;14.188;2023-11-21T11:49:25;97336.84;;;13.18;58.26
68476;BME280;55464;48.266;14.188;2023-11-21T11:54:55;97335.59;;;13.12;57.79
68476;BME280;55464;48.266;14.188;2023-11-21T11:57:24;97335.22;;;13.13;57.87
68476;BME280;55464;48.266;14.188;2023-11-21T12:02:36;97330.53;;;13.17;58.15
68476;BME280;55464;48.266;14.188;2023-11-21T12:05:10;97335.28;;;13.17;57.93
68476;BME280;55464;48.266;14.188;2023-11-21T12:10:17;97331.72;;;13.20;57.98
68476;BME280;55464;48.266;14.188;2023-11-21T12:12:48;97336.16;;;13.24;57.67
68476;BME280;55464;48.266;14.188;2023-11-21T12:15:14;97335.38;;;13.24;57.60
68476;BME280;55464;48.266;14.188;2023-11-21T12:17:41;97333.41;;;13.24;57.49
68476;BME280;55464;48.266;14.188;2023-11-21T12:20:07;97328.69;;;13.29;57.65
68476;BME280;55464;48.266;14.188;2023-11-21T12:25:08;97330.63;;;13.24;56.62
68476;BME280;55464;48.266;14.188;2023-11-21T12:27:34;97315.94;;;13.20;56.77
68476;BME280;55464;48.266;14.188;2023-11-21T12:30:00;97329.53;;;13.29;56.78
68476;BME280;55464;48.266;14.188;2023-11-21T12:32:26;97324.63;;;13.19;56.91
68476;BME280;55464;48.266;14.188;2023-11-21T12:34:51;97317.16;;;13.23;56.92
68476;BME280;55464;48.266;14.188;2023-11-21T12:37:17;97325.94;;;13.29;56.88
68476;BME280;55464;48.266;14.188;2023-11-21T12:39:43;97311.72;;;13.30;56.94
68476;BME280;55464;48.266;14.188;2023-11-21T12:42:09;97318.44;;;13.29;57.02
68476;BME280;55464;48.266;14.188;2023-11-21T12:44:35;97316.91;;;13.32;57.16
68476;BME280;55464;48.266;14.188;2023-11-21T12:47:01;97309.41;;;13.32;57.24
68476;BME280;55464;48.266;14.188;2023-11-21T12:49:27;97301.75;;;13.22;57.50
68476;BME280;55464;48.266;14.188;2023-11-21T12:51:53;97317.72;;;13.32;57.65
68476;BME280;55464;48.266;14.188;2023-11-21T12:54:19;97318.91;;;13.31;57.10
68476;BME280;55464;48.266;14.188;2023-11-21T12:56:45;97315.31;;;13.31;56.68
68476;BME280;55464;48.266;14.188;2023-11-21T12:59:12;97316.06;;;13.28;57.02
68476;BME280;55464;48.266;14.188;2023-11-21T13:01:42;97311.25;;;13.24;56.92
68476;BME280;55464;48.266;14.188;2023-11-21T13:04:07;97288.50;;;13.08;56.57